TAF PAPG
AMD PAPG 280740Z 2808/2906 26007KT P6SM -RA FEW010 BKN050 TEMPO 2808/2809 5SM RA BR BKN025 FM281200 VRB03KT 6SM -SHRASN SCT015 BKN025 FM282000 VRB03KT 6SM -SHSN SCT015 BKN035 AMD LTD TO CLD VIS AND WIND TIL 281500=
METAR PAPG
WC PAPG
WS PAPG
WV PAPG